createdAt,value
2019-01-22T00:00:56.284Z,100312.72
2019-01-22T00:06:01.597Z,100307.81
2019-01-22T00:11:06.816Z,100303.73
2019-01-22T00:16:12.272Z,100291.19
2019-01-22T00:21:17.400Z,100285.38
2019-01-22T00:26:22.572Z,100280.23
2019-01-22T00:31:27.598Z,100272.48
2019-01-22T00:36:32.965Z,100265.00
2019-01-22T00:41:38.055Z,100257.34
2019-01-22T00:46:43.462Z,100247.19
2019-01-22T00:51:48.744Z,100243.10
2019-01-22T00:56:53.815Z,100240.27
2019-01-22T01:01:58.870Z,100234.77
2019-01-22T01:07:04.171Z,100232.17
2019-01-22T01:12:09.241Z,100225.81
2019-01-22T01:17:14.986Z,100214.72
2019-01-22T01:22:20.422Z,100216.84
2019-01-22T01:27:27.200Z,100212.36
2019-01-22T01:32:47.688Z,100210.55
2019-01-22T01:37:52.830Z,100204.53
2019-01-22T01:42:58.234Z,100191.73
2019-01-22T01:48:05.698Z,100186.19
2019-01-22T01:53:10.863Z,100186.63
2019-01-22T01:58:16.419Z,100182.42
2019-01-22T02:03:21.575Z,100177.62
2019-01-22T02:08:26.777Z,100164.22
2019-01-22T02:13:39.157Z,100159.63
2019-01-22T02:19:10.357Z,100158.64
2019-01-22T02:24:43.874Z,100157.22
2019-01-22T02:30:04.641Z,100156.83
2019-01-22T02:35:37.352Z,100155.30
2019-01-22T02:41:20.234Z,100147.12
2019-01-22T02:46:38.985Z,100147.72
2019-01-22T02:52:08.277Z,100129.96
2019-01-22T02:57:56.674Z,100120.58
2019-01-22T03:03:30.529Z,100113.62
2019-01-22T03:09:06.475Z,100115.90
2019-01-22T03:14:53.652Z,100106.83
2019-01-22T03:20:48.988Z,100105.22
2019-01-22T03:26:34.681Z,100097.59
2019-01-22T03:32:19.784Z,100087.11
2019-01-22T03:38:17.787Z,100077.44
2019-01-22T03:43:39.942Z,100067.39
2019-01-22T03:48:56.137Z,100060.86
2019-01-22T03:54:26.097Z,100048.59
2019-01-22T03:59:31.706Z,100047.91
2019-01-22T04:04:37.085Z,100055.38
2019-01-22T04:09:53.195Z,100042.55
2019-01-22T04:14:58.461Z,100038.78
2019-01-22T04:20:03.948Z,100033.05
2019-01-22T04:25:33.365Z,100023.86
2019-01-22T04:31:05.311Z,100021.34
2019-01-22T04:36:59.722Z,100019.73
2019-01-22T04:42:35.168Z,100003.05
2019-01-22T04:48:05.985Z,100001.72
2019-01-22T04:53:55.479Z,99996.19
2019-01-22T04:59:23.124Z,99991.60
2019-01-22T05:04:54.540Z,99976.14
2019-01-22T05:10:14.415Z,99972.02
2019-01-22T05:16:07.469Z,99981.16
2019-01-22T05:21:25.179Z,99972.91
2019-01-22T05:27:14.779Z,99968.64
2019-01-22T05:32:55.616Z,99968.17
2019-01-22T05:38:35.604Z,99966.28
2019-01-22T05:44:19.699Z,99955.56
2019-01-22T05:49:52.993Z,99953.09
2019-01-22T05:55:07.666Z,99950.89
2019-01-22T06:00:41.743Z,99943.48
2019-01-22T06:06:17.478Z,99939.98
2019-01-22T06:12:06.287Z,99937.72
2019-01-22T06:18:03.452Z,99930.93
2019-01-22T06:24:07.836Z,99928.30
2019-01-22T06:29:45.900Z,99923.04
2019-01-22T06:35:10.204Z,99911.71
2019-01-22T06:40:56.519Z,99912.93
2019-01-22T06:46:26.853Z,99920.89
2019-01-22T06:52:06.393Z,99919.00
2019-01-22T06:57:31.057Z,99919.12
2019-01-22T07:03:22.202Z,99919.79
2019-01-22T07:09:22.625Z,99921.70
2019-01-22T07:15:20.961Z,99917.87
2019-01-22T07:21:28.846Z,99914.97
2019-01-22T07:27:16.508Z,99922.34
2019-01-22T07:32:39.893Z,99917.91
2019-01-22T07:38:06.106Z,99916.19
2019-01-22T07:44:10.654Z,99919.83
2019-01-22T07:49:39.705Z,99911.80
2019-01-22T07:55:15.097Z,99910.86
2019-01-22T08:00:38.569Z,99913.64
2019-01-22T08:06:20.203Z,99910.16
2019-01-22T08:11:55.037Z,99909.37
2019-01-22T08:17:21.632Z,99904.11
2019-01-22T08:23:03.315Z,99905.16
2019-01-22T08:29:08.830Z,99902.02
2019-01-22T08:34:54.721Z,99894.52
2019-01-22T08:40:58.406Z,99891.30
2019-01-22T08:46:18.085Z,99884.20
2019-01-22T08:52:01.987Z,99868.59
2019-01-22T08:57:51.263Z,99870.73
2019-01-22T09:03:19.613Z,99862.78
2019-01-22T09:08:58.891Z,99869.30
2019-01-22T09:14:44.900Z,99863.33
2019-01-22T09:20:25.653Z,99857.88
2019-01-22T09:25:51.331Z,99865.15
2019-01-22T09:31:16.883Z,99855.88
2019-01-22T09:37:02.094Z,99855.20
2019-01-22T09:42:07.149Z,99849.03
2019-01-22T09:47:12.411Z,99847.34
2019-01-22T09:52:17.583Z,99845.05
2019-01-22T09:57:23.092Z,99844.26
2019-01-22T10:02:33.975Z,99837.25
2019-01-22T10:07:39.426Z,99834.03
2019-01-22T10:12:45.155Z,99823.82
2019-01-22T10:17:50.886Z,99823.50
2019-01-22T10:22:56.321Z,99810.28
2019-01-22T10:28:01.559Z,99801.95
2019-01-22T10:33:06.911Z,99796.47
2019-01-22T10:38:50.443Z,99782.45
2019-01-22T10:44:25.510Z,99776.47
2019-01-22T10:49:52.825Z,99774.25
2019-01-22T10:55:04.863Z,99759.91
2019-01-22T11:00:35.557Z,99767.30
2019-01-22T11:05:42.507Z,99756.54
2019-01-22T11:11:08.701Z,99753.42
2019-01-22T11:16:15.120Z,99740.57
2019-01-22T11:21:20.708Z,99724.50
2019-01-22T11:26:26.407Z,99719.47
2019-01-22T11:31:39.090Z,99704.17
2019-01-22T11:36:54.526Z,99706.92
2019-01-22T11:42:26.042Z,99698.77
2019-01-22T11:47:33.926Z,99695.61
2019-01-22T11:52:39.857Z,99681.82
2019-01-22T11:57:45.990Z,99672.60
2019-01-22T12:02:52.501Z,99664.46
2019-01-22T12:07:58.099Z,99656.06
2019-01-22T12:13:03.783Z,99638.49
2019-01-22T12:18:09.580Z,99627.66
2019-01-22T12:23:15.202Z,99617.63
2019-01-22T12:28:20.128Z,99611.11
2019-01-22T12:33:25.995Z,99593.97
2019-01-22T12:38:31.576Z,99581.75
2019-01-22T12:43:37.239Z,99575.48
2019-01-22T12:48:42.969Z,99563.34
2019-01-22T12:53:54.653Z,99558.33
2019-01-22T12:59:10.111Z,99557.66
2019-01-22T13:04:15.708Z,99553.42
2019-01-22T13:10:00.607Z,99541.31
2019-01-22T13:40:54.117Z,99496.02
2019-01-22T13:46:02.604Z,99482.13
2019-01-22T13:51:11.783Z,99475.20
2019-01-22T13:56:18.585Z,99467.58
2019-01-22T14:01:24.384Z,99456.47
2019-01-22T14:06:31.060Z,99446.78
2019-01-22T14:11:36.544Z,99439.11
2019-01-22T14:16:56.948Z,99434.17
2019-01-22T14:22:03.733Z,99432.48
2019-01-22T14:27:09.399Z,99432.77
2019-01-22T14:32:14.856Z,99421.86
2019-01-22T14:37:20.675Z,99416.09
2019-01-22T14:42:27.874Z,99397.63
2019-01-22T14:47:33.487Z,99390.00
2019-01-22T14:52:41.508Z,99392.89
2019-01-22T14:57:47.198Z,99390.53
2019-01-22T15:02:53.395Z,99385.80
2019-01-22T15:07:59.000Z,99385.70
2019-01-22T15:13:05.786Z,99375.36
2019-01-22T15:18:14.014Z,99365.84
2019-01-22T15:23:29.576Z,99364.34
2019-01-22T15:28:38.806Z,99358.49
2019-01-22T15:33:45.917Z,99350.52
2019-01-22T15:38:59.692Z,99346.42
2019-01-22T15:44:13.338Z,99336.17
2019-01-22T15:49:27.480Z,99342.16
2019-01-22T15:54:32.928Z,99344.80
2019-01-22T15:59:38.890Z,99342.09
2019-01-22T16:04:44.568Z,99336.25
2019-01-22T16:09:50.600Z,99328.44
2019-01-22T16:14:58.645Z,99325.48
2019-01-22T16:20:06.616Z,99322.73
2019-01-22T16:25:16.181Z,99321.11
2019-01-22T16:30:26.823Z,99315.91
2019-01-22T16:35:32.414Z,99309.88
2019-01-22T16:40:40.850Z,99310.59
2019-01-22T16:45:47.394Z,99304.98
2019-01-22T16:50:52.932Z,99299.37
2019-01-22T16:55:58.425Z,99290.09
2019-01-22T17:01:04.127Z,99290.15
2019-01-22T17:06:10.573Z,99293.06
2019-01-22T17:11:17.230Z,99284.74
2019-01-22T17:16:24.044Z,99280.48
2019-01-22T17:21:29.586Z,99284.45
2019-01-22T17:26:35.196Z,99284.23
2019-01-22T17:32:04.634Z,99278.42
2019-01-22T17:37:10.283Z,99278.97
2019-01-22T17:42:17.081Z,99266.02
2019-01-22T17:47:23.819Z,99266.48
2019-01-22T17:52:30.228Z,99259.45
2019-01-22T17:57:39.471Z,99252.54
2019-01-22T18:02:46.501Z,99241.72
2019-01-22T18:07:52.537Z,99236.27
2019-01-22T18:12:58.924Z,99235.85
2019-01-22T18:18:04.600Z,99233.59
2019-01-22T18:23:10.288Z,99221.89
2019-01-22T18:28:15.569Z,99211.13
2019-01-22T18:33:22.688Z,99218.19
2019-01-22T18:38:28.192Z,99217.52
2019-01-22T18:43:34.093Z,99211.08
2019-01-22T18:48:40.226Z,99205.70
2019-01-22T18:54:06.680Z,99197.19
2019-01-22T18:59:14.949Z,99197.42
2019-01-22T19:04:23.276Z,99195.77
2019-01-22T19:09:30.717Z,99185.89
2019-01-22T19:14:39.964Z,99193.69
2019-01-22T19:19:47.936Z,99189.14
2019-01-22T19:24:53.733Z,99183.16
2019-01-22T19:30:06.846Z,99184.05
2019-01-22T19:35:27.714Z,99170.21
2019-01-22T19:40:40.355Z,99167.20
2019-01-22T19:45:50.828Z,99161.88
2019-01-22T19:50:57.666Z,99160.58
2019-01-22T19:56:08.001Z,99160.00
2019-01-22T20:01:25.601Z,99152.72
2019-01-22T20:06:34.832Z,99148.47
2019-01-22T20:11:40.206Z,99150.52
2019-01-22T20:16:45.572Z,99134.63
2019-01-22T20:21:50.816Z,99132.20
2019-01-22T20:27:05.384Z,99141.38
2019-01-22T20:32:10.598Z,99134.72
2019-01-22T20:37:15.939Z,99141.34
2019-01-22T20:42:21.219Z,99124.20
2019-01-22T20:47:26.400Z,99128.03
2019-01-22T20:52:32.334Z,99118.88
2019-01-22T20:57:37.905Z,99114.23
2019-01-22T21:02:43.109Z,99114.92
2019-01-22T21:07:48.224Z,99113.75
2019-01-22T21:12:54.068Z,99111.61
2019-01-22T21:17:59.251Z,99115.67
2019-01-22T21:23:04.717Z,99102.09
2019-01-22T21:28:09.808Z,99099.27
2019-01-22T21:33:16.246Z,99093.47
2019-01-22T21:38:21.450Z,99091.42
2019-01-22T21:43:26.769Z,99080.02
2019-01-22T21:48:33.799Z,99072.98
2019-01-22T21:53:44.289Z,99071.69
2019-01-22T21:58:50.318Z,99081.09
2019-01-22T22:03:55.742Z,99078.37
2019-01-22T22:09:02.248Z,99070.52
2019-01-22T22:14:10.956Z,99068.31
2019-01-22T22:19:16.594Z,99056.47
2019-01-22T22:24:26.988Z,99046.59
2019-01-22T22:29:34.571Z,99048.91
2019-01-22T22:34:40.826Z,99045.23
2019-01-22T22:39:46.054Z,99041.57
2019-01-22T22:44:51.130Z,99024.41
2019-01-22T22:49:56.526Z,99021.75
2019-01-22T22:55:02.120Z,99014.61
2019-01-22T23:00:33.596Z,99012.24
2019-01-22T23:05:42.498Z,99016.08
2019-01-22T23:10:47.566Z,99009.69
2019-01-22T23:15:52.650Z,99014.81
2019-01-22T23:20:58.845Z,99011.63
2019-01-22T23:26:04.054Z,99009.49
2019-01-22T23:31:09.112Z,98996.45
2019-01-22T23:36:14.706Z,98993.02
2019-01-22T23:41:19.915Z,98986.01
2019-01-22T23:46:25.215Z,98982.90
2019-01-22T23:51:30.362Z,98983.00
2019-01-22T23:56:35.692Z,98981.08
